createdAt,value
2022-12-24T00:00:07.390Z,32.80
2022-12-24T00:02:34.619Z,35.22
2022-12-24T00:05:01.825Z,32.90
2022-12-24T00:07:30.004Z,26.50
2022-12-24T00:09:56.855Z,40.53
2022-12-24T00:12:23.583Z,32.28
2022-12-24T00:14:50.373Z,33.40
2022-12-24T00:17:17.176Z,34.42
2022-12-24T00:19:44.059Z,32.20
2022-12-24T00:22:10.881Z,34.72
2022-12-24T00:24:37.860Z,39.30
2022-12-24T00:27:05.899Z,36.55
2022-12-24T00:29:35.364Z,35.78
2022-12-24T00:32:02.073Z,35.10
2022-12-24T00:34:29.089Z,40.90
2022-12-24T00:36:56.055Z,37.05
2022-12-24T00:39:25.988Z,37.00
2022-12-24T00:41:52.756Z,40.38
2022-12-24T00:44:19.510Z,35.25
2022-12-24T00:46:46.302Z,36.25
2022-12-24T00:49:13.267Z,30.23
2022-12-24T00:51:40.064Z,39.83
2022-12-24T00:54:07.268Z,41.28
2022-12-24T00:56:34.669Z,41.97
2022-12-24T00:59:01.723Z,45.70
2022-12-24T01:01:28.815Z,42.00
2022-12-24T01:04:14.447Z,55.63
2022-12-24T01:06:41.403Z,29.73
2022-12-24T01:09:08.305Z,38.10
2022-12-24T01:11:35.088Z,30.05
2022-12-24T01:14:01.859Z,39.63
2022-12-24T01:16:28.593Z,41.95
2022-12-24T01:18:55.182Z,29.58
2022-12-24T01:21:21.744Z,32.55
2022-12-24T01:23:48.754Z,36.08
2022-12-24T01:26:15.404Z,39.17
2022-12-24T01:28:45.201Z,31.83
2022-12-24T01:31:17.137Z,35.38
2022-12-24T01:33:44.507Z,40.88
2022-12-24T01:36:12.342Z,34.90
2022-12-24T01:38:39.425Z,46.80
2022-12-24T01:41:24.977Z,28.77
2022-12-24T01:43:51.489Z,33.28
2022-12-24T01:46:27.266Z,44.20
2022-12-24T01:48:58.596Z,49.92
2022-12-24T01:54:12.364Z,37.75
2022-12-24T01:56:45.099Z,39.42
2022-12-24T01:59:13.311Z,36.92
2022-12-24T02:01:40.032Z,35.95
2022-12-24T02:04:19.458Z,42.80
2022-12-24T02:06:46.279Z,44.00
2022-12-24T02:09:12.845Z,35.72
2022-12-24T02:11:39.892Z,47.53
2022-12-24T02:14:06.616Z,36.90
2022-12-24T02:16:49.859Z,33.45
2022-12-24T02:19:34.836Z,47.78
2022-12-24T02:22:06.459Z,41.63
2022-12-24T02:25:10.157Z,40.60
2022-12-24T02:27:49.794Z,44.75
2022-12-24T02:30:30.167Z,25.23
2022-12-24T02:33:01.271Z,42.03
2022-12-24T02:35:40.480Z,34.45
2022-12-24T02:38:36.686Z,33.83
2022-12-24T02:41:48.927Z,35.97
2022-12-24T02:44:16.268Z,30.25
2022-12-24T02:46:42.903Z,36.00
2022-12-24T02:49:09.525Z,43.30
2022-12-24T02:51:36.062Z,32.95
2022-12-24T02:54:02.649Z,39.30
2022-12-24T02:56:29.176Z,33.90
2022-12-24T02:59:09.760Z,43.45
2022-12-24T03:01:43.627Z,47.30
2022-12-24T03:04:19.468Z,30.35
2022-12-24T03:06:59.675Z,42.30
2022-12-24T03:09:48.043Z,24.38
2022-12-24T03:12:20.748Z,39.80
2022-12-24T03:14:48.267Z,35.20
2022-12-24T03:17:15.662Z,44.85
2022-12-24T03:19:42.139Z,41.78
2022-12-24T03:22:10.216Z,34.28
2022-12-24T03:24:36.854Z,49.55
2022-12-24T03:27:05.465Z,42.00
2022-12-24T03:29:32.518Z,47.17
2022-12-24T03:32:01.691Z,33.38
2022-12-24T03:34:28.340Z,34.47
2022-12-24T03:36:54.863Z,31.27
2022-12-24T03:39:21.494Z,33.58
2022-12-24T03:41:48.426Z,31.83
2022-12-24T03:44:15.498Z,30.23
2022-12-24T03:46:42.138Z,32.00
2022-12-24T03:49:08.664Z,26.10
2022-12-24T03:51:35.227Z,22.13
2022-12-24T03:54:01.872Z,32.80
2022-12-24T03:56:28.479Z,25.90
2022-12-24T03:58:55.023Z,24.70
2022-12-24T04:01:21.717Z,25.90
2022-12-24T04:03:48.318Z,25.38
2022-12-24T04:06:17.624Z,32.05
2022-12-24T04:08:44.358Z,19.55
2022-12-24T04:11:12.459Z,26.63
2022-12-24T04:13:39.117Z,20.40
2022-12-24T04:16:11.356Z,29.27
2022-12-24T04:18:39.000Z,21.33
2022-12-24T04:21:06.451Z,22.08
2022-12-24T04:23:34.831Z,16.08
2022-12-24T04:26:02.149Z,23.00
2022-12-24T04:28:29.799Z,25.40
2022-12-24T04:31:05.599Z,27.20
2022-12-24T04:33:32.461Z,26.05
2022-12-24T04:36:00.639Z,19.10
2022-12-24T04:38:27.717Z,24.25
2022-12-24T04:41:09.895Z,19.48
2022-12-24T04:43:36.488Z,29.30
2022-12-24T04:46:07.624Z,28.83
2022-12-24T04:48:34.537Z,18.95
2022-12-24T04:51:03.079Z,29.92
2022-12-24T04:53:30.489Z,18.83
2022-12-24T04:55:57.109Z,34.55
2022-12-24T04:58:23.761Z,22.77
2022-12-24T05:00:50.346Z,35.83
2022-12-24T05:03:17.010Z,28.15
2022-12-24T05:05:43.609Z,31.42
2022-12-24T05:08:10.218Z,25.45
2022-12-24T05:10:36.935Z,25.05
2022-12-24T05:13:03.524Z,30.40
2022-12-24T05:15:30.174Z,26.60
2022-12-24T05:17:58.128Z,37.38
2022-12-24T05:20:24.714Z,29.50
2022-12-24T05:23:09.615Z,34.90
2022-12-24T05:25:58.272Z,35.65
2022-12-24T05:28:25.065Z,24.48
2022-12-24T05:30:51.966Z,39.35
2022-12-24T05:33:18.795Z,31.42
2022-12-24T05:35:45.333Z,31.17
2022-12-24T05:38:11.970Z,27.27
2022-12-24T05:40:38.490Z,37.17
2022-12-24T05:43:05.026Z,39.38
2022-12-24T05:45:31.610Z,26.92
2022-12-24T05:47:58.217Z,31.40
2022-12-24T05:50:25.984Z,25.02
2022-12-24T05:53:04.659Z,28.73
2022-12-24T05:55:31.250Z,34.17
2022-12-24T05:57:57.964Z,30.80
2022-12-24T06:00:24.763Z,24.77
2022-12-24T06:02:51.304Z,28.15
2022-12-24T06:05:17.876Z,30.40
2022-12-24T06:07:44.405Z,32.58
2022-12-24T06:10:11.102Z,22.05
2022-12-24T06:12:37.678Z,29.85
2022-12-24T06:15:04.961Z,32.88
2022-12-24T06:17:31.621Z,34.13
2022-12-24T06:19:58.145Z,35.70
2022-12-24T06:22:24.641Z,21.63
2022-12-24T06:24:51.152Z,37.97
2022-12-24T06:27:17.815Z,26.50
2022-12-24T06:29:44.343Z,30.25
2022-12-24T06:32:10.860Z,33.40
2022-12-24T06:34:37.424Z,31.83
2022-12-24T06:37:04.288Z,25.88
2022-12-24T06:39:30.934Z,26.90
2022-12-24T06:41:57.696Z,30.77
2022-12-24T06:44:24.416Z,35.65
2022-12-24T06:46:50.972Z,39.72
2022-12-24T06:49:17.573Z,36.20
2022-12-24T06:51:44.139Z,36.63
2022-12-24T06:54:10.688Z,45.15
2022-12-24T06:56:37.366Z,40.47
2022-12-24T06:59:05.641Z,36.42
2022-12-24T07:01:32.570Z,44.17
2022-12-24T07:03:59.324Z,35.40
2022-12-24T07:06:28.757Z,37.75
2022-12-24T07:08:55.534Z,37.15
2022-12-24T07:11:23.505Z,34.58
2022-12-24T07:13:50.082Z,40.83
2022-12-24T07:16:17.828Z,41.78
2022-12-24T07:18:44.767Z,40.47
2022-12-24T07:21:13.013Z,41.63
2022-12-24T07:23:39.559Z,33.25
2022-12-24T07:26:07.056Z,39.85
2022-12-24T07:28:33.943Z,43.78
2022-12-24T07:31:00.775Z,45.83
2022-12-24T07:33:27.332Z,26.10
2022-12-24T07:36:05.237Z,38.70
2022-12-24T07:38:32.309Z,42.03
2022-12-24T07:40:58.933Z,33.42
2022-12-24T07:43:26.452Z,42.20
2022-12-24T07:45:56.203Z,41.25
2022-12-24T07:48:22.932Z,38.08
2022-12-24T07:50:50.207Z,44.63
2022-12-24T07:53:16.925Z,50.40
2022-12-24T07:55:44.239Z,57.03
2022-12-24T07:58:10.844Z,36.88
2022-12-24T08:00:37.887Z,46.25
2022-12-24T08:03:04.629Z,46.10
2022-12-24T08:05:35.749Z,44.65
2022-12-24T08:08:02.800Z,50.35
2022-12-24T08:10:29.354Z,48.38
2022-12-24T08:12:56.299Z,37.30
2022-12-24T08:15:22.888Z,40.05
2022-12-24T08:17:49.495Z,44.83
2022-12-24T08:20:17.239Z,48.25
2022-12-24T08:22:43.850Z,49.55
2022-12-24T08:25:10.747Z,50.30
2022-12-24T08:27:37.720Z,33.78
2022-12-24T08:30:05.580Z,38.20
2022-12-24T08:32:32.209Z,41.80
2022-12-24T08:34:58.777Z,41.80
2022-12-24T08:37:25.375Z,39.70
2022-12-24T08:39:51.907Z,32.22
2022-12-24T08:42:18.685Z,50.63
2022-12-24T08:44:45.247Z,46.83
2022-12-24T08:47:11.833Z,43.15
2022-12-24T08:49:39.515Z,33.20
2022-12-24T08:52:06.647Z,37.17
2022-12-24T08:54:34.064Z,46.63
2022-12-24T08:57:00.596Z,50.28
2022-12-24T08:59:27.097Z,38.10
2022-12-24T09:01:53.874Z,44.75
2022-12-24T09:04:20.625Z,30.13
2022-12-24T09:06:47.142Z,36.40
2022-12-24T09:09:13.706Z,43.15
2022-12-24T09:11:40.233Z,37.42
2022-12-24T09:14:06.805Z,39.78
2022-12-24T09:16:33.408Z,37.72
2022-12-24T09:18:59.950Z,39.35
2022-12-24T09:21:26.528Z,38.03
2022-12-24T09:23:53.116Z,33.10
2022-12-24T09:26:25.913Z,43.90
2022-12-24T09:28:53.199Z,36.58
2022-12-24T09:31:20.549Z,35.22
2022-12-24T09:33:48.615Z,37.25
2022-12-24T09:36:15.560Z,35.85
2022-12-24T09:38:43.201Z,39.35
2022-12-24T09:41:33.466Z,30.00
2022-12-24T09:44:04.247Z,29.75
2022-12-24T09:46:35.144Z,35.10
2022-12-24T09:49:14.976Z,26.75
2022-12-24T09:51:44.412Z,28.92
2022-12-24T09:54:16.790Z,49.15
2022-12-24T09:56:47.720Z,41.97
2022-12-24T09:59:27.187Z,52.40
2022-12-24T10:01:54.574Z,46.15
2022-12-24T10:04:24.924Z,41.60
2022-12-24T10:07:05.889Z,34.75
2022-12-24T10:09:49.443Z,51.70
2022-12-24T10:12:24.269Z,48.30
2022-12-24T10:15:00.549Z,49.22
2022-12-24T10:17:54.889Z,45.63
2022-12-24T10:20:44.689Z,58.88
2022-12-24T10:23:19.888Z,42.45
2022-12-24T10:26:11.412Z,40.95
2022-12-24T10:31:09.860Z,33.03
2022-12-24T10:33:43.232Z,41.65
2022-12-24T10:36:16.209Z,44.42
2022-12-24T10:38:43.335Z,38.35
2022-12-24T10:41:10.124Z,51.05
2022-12-24T10:43:38.488Z,37.42
2022-12-24T10:46:07.625Z,38.03
2022-12-24T10:48:50.031Z,45.10
2022-12-24T10:51:25.441Z,43.83
2022-12-24T10:53:57.656Z,45.97
2022-12-24T10:56:24.185Z,45.50
2022-12-24T10:58:53.688Z,43.33
2022-12-24T11:01:44.013Z,45.85
2022-12-24T11:04:23.872Z,47.53
2022-12-24T11:07:05.037Z,35.00
2022-12-24T11:09:37.862Z,35.88
2022-12-24T11:12:09.337Z,32.15
2022-12-24T11:14:37.879Z,40.03
2022-12-24T11:17:04.758Z,30.75
2022-12-24T11:19:31.866Z,36.40
2022-12-24T11:22:01.395Z,36.00
2022-12-24T11:24:34.409Z,43.67
2022-12-24T11:27:25.415Z,42.47
2022-12-24T11:29:51.914Z,39.30
2022-12-24T11:32:21.528Z,32.55
2022-12-24T11:34:48.535Z,26.02
2022-12-24T11:37:18.739Z,36.58
2022-12-24T11:39:49.552Z,43.40
2022-12-24T11:42:31.365Z,40.90
2022-12-24T11:44:59.982Z,34.78
2022-12-24T11:47:37.409Z,35.08
2022-12-24T11:50:22.746Z,38.13
2022-12-24T11:53:34.216Z,35.22
2022-12-24T11:56:02.942Z,35.22
2022-12-24T11:58:46.098Z,25.65
2022-12-24T12:01:23.910Z,39.10
2022-12-24T12:03:53.877Z,28.25
2022-12-24T12:06:25.393Z,37.08
2022-12-24T12:08:56.353Z,46.03
2022-12-24T12:11:23.919Z,36.90
2022-12-24T12:13:50.562Z,36.95
2022-12-24T12:16:21.452Z,28.60
2022-12-24T12:18:55.011Z,44.42
2022-12-24T12:21:25.880Z,34.42
2022-12-24T12:23:59.507Z,48.58
2022-12-24T12:26:29.596Z,33.45
2022-12-24T12:29:30.095Z,25.55
2022-12-24T12:32:00.079Z,34.35
2022-12-24T12:34:36.989Z,31.63
2022-12-24T12:37:15.530Z,36.60
2022-12-24T12:39:42.498Z,22.63
2022-12-24T12:42:28.011Z,32.33
2022-12-24T12:45:00.308Z,47.65
2022-12-24T12:47:26.746Z,27.75
2022-12-24T12:49:59.362Z,42.30
2022-12-24T12:52:37.775Z,30.15
2022-12-24T12:55:24.915Z,32.08
2022-12-24T12:57:53.944Z,34.33
2022-12-24T13:00:20.539Z,37.40
2022-12-24T13:03:20.398Z,31.85
2022-12-24T13:06:14.117Z,24.85
2022-12-24T13:09:11.490Z,30.45
2022-12-24T13:11:46.813Z,42.67
2022-12-24T13:14:57.717Z,29.92
2022-12-24T13:17:38.320Z,28.07
2022-12-24T13:20:17.672Z,22.73
2022-12-24T13:22:56.432Z,32.72
2022-12-24T13:25:27.852Z,38.28
2022-12-24T13:30:39.226Z,27.45
2022-12-24T13:33:11.421Z,21.77
2022-12-24T13:35:52.061Z,30.38
2022-12-24T13:38:27.699Z,25.35
2022-12-24T13:40:55.007Z,28.88
2022-12-24T13:43:21.632Z,26.15
2022-12-24T13:45:50.431Z,39.22
2022-12-24T13:48:29.027Z,34.55
2022-12-24T13:50:58.970Z,28.20
2022-12-24T13:53:32.472Z,28.08
2022-12-24T13:56:13.995Z,32.08
2022-12-24T14:01:19.507Z,20.20
2022-12-24T14:03:51.291Z,24.73
2022-12-24T14:06:22.107Z,18.30
2022-12-24T14:08:51.495Z,24.73
2022-12-24T14:11:19.385Z,23.58
2022-12-24T14:13:48.578Z,24.08
2022-12-24T14:16:51.134Z,30.65
2022-12-24T14:19:21.093Z,27.58
2022-12-24T14:21:59.337Z,31.02
2022-12-24T14:24:31.771Z,28.30
2022-12-24T14:27:02.121Z,24.73
2022-12-24T14:29:32.310Z,30.35
2022-12-24T14:32:00.694Z,20.80
2022-12-24T14:34:27.854Z,31.92
2022-12-24T14:36:55.582Z,25.92
2022-12-24T14:39:34.636Z,31.75
2022-12-24T14:42:29.737Z,22.20
2022-12-24T14:45:31.616Z,34.53
2022-12-24T14:48:22.437Z,33.80
2022-12-24T14:50:55.074Z,36.08
2022-12-24T14:53:36.257Z,27.20
2022-12-24T14:56:17.194Z,36.55
2022-12-24T14:58:45.019Z,29.55
2022-12-24T15:01:24.532Z,33.45
2022-12-24T15:04:09.398Z,20.02
2022-12-24T15:06:41.789Z,20.30
2022-12-24T15:09:17.682Z,33.20
2022-12-24T15:11:45.501Z,33.25
2022-12-24T15:14:12.741Z,33.35
2022-12-24T15:16:39.924Z,31.58
2022-12-24T15:19:11.032Z,30.70
2022-12-24T15:21:42.633Z,32.03
2022-12-24T15:24:27.802Z,22.30
2022-12-24T15:26:55.317Z,27.55
2022-12-24T15:29:25.516Z,41.17
2022-12-24T15:32:02.186Z,33.85
2022-12-24T15:34:31.457Z,31.08
2022-12-24T15:37:05.558Z,32.45
2022-12-24T15:39:32.477Z,29.80
2022-12-24T15:42:14.202Z,21.70
2022-12-24T15:44:45.449Z,30.98
2022-12-24T15:49:48.779Z,33.85
2022-12-24T15:52:18.036Z,41.70
2022-12-24T15:54:50.740Z,35.92
2022-12-24T15:57:30.393Z,26.50
2022-12-24T15:59:58.010Z,38.63
2022-12-24T16:02:40.775Z,41.58
2022-12-24T16:05:25.991Z,39.55
2022-12-24T16:08:09.884Z,34.35
2022-12-24T16:10:44.579Z,24.75
2022-12-24T16:13:30.875Z,29.08
2022-12-24T16:16:03.592Z,25.90
2022-12-24T16:18:35.349Z,25.50
2022-12-24T16:21:02.310Z,21.98
2022-12-24T16:23:36.464Z,38.75
2022-12-24T16:26:03.078Z,27.50
2022-12-24T16:28:29.571Z,48.45
2022-12-24T16:30:56.387Z,33.47
2022-12-24T16:33:23.785Z,34.55
2022-12-24T16:35:50.594Z,40.35
2022-12-24T16:38:17.184Z,36.05
2022-12-24T16:40:43.813Z,45.85
2022-12-24T16:43:29.178Z,49.53
2022-12-24T16:46:04.823Z,49.53
2022-12-24T16:48:33.903Z,48.38
2022-12-24T16:51:00.387Z,41.75
2022-12-24T16:53:26.904Z,36.70
2022-12-24T16:55:53.420Z,33.00
2022-12-24T16:58:20.284Z,33.28
2022-12-24T17:00:46.925Z,30.67
2022-12-24T17:03:13.842Z,36.05
2022-12-24T17:05:41.773Z,36.25
2022-12-24T17:08:08.956Z,37.75
2022-12-24T17:10:35.754Z,36.80
2022-12-24T17:13:02.814Z,36.17
2022-12-24T17:15:29.550Z,31.48
2022-12-24T17:17:56.292Z,45.88
2022-12-24T17:20:24.499Z,40.67
2022-12-24T17:22:51.522Z,30.38
2022-12-24T17:25:18.122Z,45.60
2022-12-24T17:27:44.663Z,44.80
2022-12-24T17:30:11.468Z,39.67
2022-12-24T17:32:39.440Z,56.88
2022-12-24T17:35:06.600Z,63.72
2022-12-24T17:37:33.173Z,64.88
2022-12-24T17:39:59.855Z,51.08
2022-12-24T17:42:26.363Z,55.80
2022-12-24T17:44:52.929Z,52.20
2022-12-24T17:47:19.468Z,48.33
2022-12-24T17:49:45.997Z,48.83
2022-12-24T17:52:12.596Z,57.47
2022-12-24T17:54:39.118Z,50.42
2022-12-24T17:57:05.647Z,57.22
2022-12-24T17:59:32.184Z,52.22
2022-12-24T18:01:58.882Z,39.85
2022-12-24T18:04:25.465Z,44.40
2022-12-24T18:06:54.999Z,46.10
2022-12-24T18:09:28.258Z,52.53
2022-12-24T18:11:54.960Z,41.00
2022-12-24T18:14:21.527Z,53.75
2022-12-24T18:16:48.264Z,42.33
2022-12-24T18:19:14.912Z,43.85
2022-12-24T18:21:41.457Z,49.67
2022-12-24T18:24:08.980Z,44.35
2022-12-24T18:26:35.736Z,47.13
2022-12-24T18:29:04.599Z,68.82
2022-12-24T18:31:33.380Z,55.20
2022-12-24T18:34:01.054Z,43.20
2022-12-24T18:36:27.571Z,53.88
2022-12-24T18:38:54.118Z,46.78
2022-12-24T18:41:23.482Z,60.85
2022-12-24T18:43:50.291Z,47.35
2022-12-24T18:46:23.448Z,40.00
2022-12-24T18:48:50.805Z,55.00
2022-12-24T18:51:19.749Z,55.38
2022-12-24T18:53:46.303Z,47.58
2022-12-24T18:56:15.732Z,48.67
2022-12-24T18:58:43.051Z,42.97
2022-12-24T19:01:33.616Z,42.33
2022-12-24T19:04:00.642Z,44.95
2022-12-24T19:06:27.210Z,37.40
2022-12-24T19:08:57.908Z,37.00
2022-12-24T19:11:27.453Z,46.72
2022-12-24T19:13:54.090Z,41.38
2022-12-24T19:16:21.436Z,48.80
2022-12-24T19:18:48.284Z,64.18
2022-12-24T19:21:17.047Z,49.72
2022-12-24T19:23:44.033Z,45.25
2022-12-24T19:26:11.674Z,54.92
2022-12-24T19:28:38.395Z,48.85
2022-12-24T19:31:06.820Z,67.72
2022-12-24T19:33:44.041Z,62.88
2022-12-24T19:36:16.556Z,45.20
2022-12-24T19:38:43.263Z,54.40
2022-12-24T19:41:12.822Z,44.78
2022-12-24T19:43:41.398Z,50.60
2022-12-24T19:46:09.243Z,40.28
2022-12-24T19:48:36.537Z,54.80
2022-12-24T19:51:05.218Z,51.97
2022-12-24T19:53:31.981Z,53.95
2022-12-24T19:55:58.903Z,60.30
2022-12-24T19:58:26.551Z,56.35
2022-12-24T20:00:53.627Z,53.55
2022-12-24T20:03:20.573Z,57.28
2022-12-24T20:05:47.639Z,60.83
2022-12-24T20:08:15.068Z,69.43
2022-12-24T20:10:43.254Z,66.57
2022-12-24T20:13:10.371Z,75.82
2022-12-24T20:15:41.299Z,61.03
2022-12-24T20:18:08.497Z,65.28
2022-12-24T20:20:35.166Z,59.38
2022-12-24T20:23:01.886Z,71.10
2022-12-24T20:25:28.390Z,81.57
2022-12-24T20:27:54.864Z,79.30
2022-12-24T20:30:21.782Z,57.20
2022-12-24T20:32:48.350Z,65.78
2022-12-24T20:35:15.006Z,61.38
2022-12-24T20:37:46.182Z,60.85
2022-12-24T20:42:39.751Z,60.13
2022-12-24T20:45:06.884Z,66.50
2022-12-24T20:47:33.940Z,61.20
2022-12-24T20:50:00.560Z,46.55
2022-12-24T20:52:27.161Z,56.85
2022-12-24T20:54:55.897Z,51.28
2022-12-24T20:57:26.747Z,71.03
2022-12-24T20:59:56.017Z,53.50
2022-12-24T21:02:22.742Z,63.58
2022-12-24T21:04:49.724Z,55.85
2022-12-24T21:07:17.096Z,48.53
2022-12-24T21:09:43.643Z,52.17
2022-12-24T21:12:31.769Z,57.50
2022-12-24T21:14:58.405Z,56.03
2022-12-24T21:17:24.995Z,50.00
2022-12-24T21:19:51.672Z,63.45
2022-12-24T21:22:18.222Z,68.47
2022-12-24T21:24:44.760Z,51.20
2022-12-24T21:27:11.290Z,50.38
2022-12-24T21:29:37.830Z,59.63
2022-12-24T21:32:04.408Z,54.38
2022-12-24T21:34:30.999Z,71.63
2022-12-24T21:36:57.583Z,43.92
2022-12-24T21:39:24.146Z,63.05
2022-12-24T21:41:52.309Z,47.00
2022-12-24T21:44:19.117Z,48.88
2022-12-24T21:46:45.793Z,53.28
2022-12-24T21:49:31.044Z,47.15
2022-12-24T21:51:58.912Z,46.63
2022-12-24T21:54:30.400Z,53.45
2022-12-24T21:57:18.970Z,48.72
2022-12-24T21:59:46.719Z,44.35
2022-12-24T22:02:14.678Z,48.75
2022-12-24T22:04:42.176Z,47.70
2022-12-24T22:07:38.233Z,51.15
2022-12-24T22:10:24.429Z,48.15
2022-12-24T22:12:51.363Z,46.55
2022-12-24T22:15:18.240Z,53.15
2022-12-24T22:17:45.022Z,53.83
2022-12-24T22:20:12.451Z,45.25
2022-12-24T22:22:39.272Z,47.80
2022-12-24T22:25:06.341Z,61.75
2022-12-24T22:27:33.150Z,49.63
2022-12-24T22:29:59.896Z,48.05
2022-12-24T22:32:26.657Z,68.88
2022-12-24T22:34:53.805Z,46.65
2022-12-24T22:37:20.751Z,41.78
2022-12-24T22:39:47.556Z,43.10
2022-12-24T22:42:14.412Z,53.67
2022-12-24T22:44:41.144Z,43.17
2022-12-24T22:47:08.847Z,51.50
2022-12-24T22:49:38.625Z,44.63
2022-12-24T22:52:05.381Z,37.38
2022-12-24T22:54:32.996Z,49.28
2022-12-24T22:56:59.967Z,52.70
2022-12-24T22:59:26.714Z,41.75
2022-12-24T23:01:53.798Z,45.40
2022-12-24T23:04:20.805Z,53.22
2022-12-24T23:06:47.979Z,34.17
2022-12-24T23:09:16.126Z,35.80
2022-12-24T23:11:43.799Z,38.10
2022-12-24T23:14:36.699Z,43.08
2022-12-24T23:17:04.120Z,39.92
2022-12-24T23:19:32.143Z,41.13
2022-12-24T23:22:00.251Z,48.10
2022-12-24T23:24:27.244Z,44.88
2022-12-24T23:26:54.513Z,53.33
2022-12-24T23:29:21.888Z,46.15
2022-12-24T23:31:48.625Z,36.72
2022-12-24T23:34:15.386Z,37.53
2022-12-24T23:36:42.231Z,43.22
2022-12-24T23:39:08.957Z,47.15
2022-12-24T23:41:35.715Z,36.53
2022-12-24T23:44:02.601Z,41.75
2022-12-24T23:46:30.345Z,35.40
2022-12-24T23:48:57.556Z,41.40
2022-12-24T23:51:26.343Z,53.70
2022-12-24T23:53:54.839Z,41.25
2022-12-24T23:56:22.907Z,39.42
2022-12-24T23:58:51.844Z,40.83
